createdAt,value
2019-03-18T00:01:40.907Z,82.09
2019-03-18T00:04:28.114Z,82.35
2019-03-18T00:07:15.226Z,82.16
2019-03-18T00:10:03.636Z,82.24
2019-03-18T00:12:53.177Z,81.97
2019-03-18T00:15:39.834Z,82.29
2019-03-18T00:18:29.322Z,82.11
2019-03-18T00:21:18.943Z,82.37
2019-03-18T00:24:05.644Z,82.09
2019-03-18T00:26:52.539Z,82.31
2019-03-18T00:29:39.423Z,82.56
2019-03-18T00:32:26.141Z,82.08
2019-03-18T00:35:13.619Z,82.50
2019-03-18T00:37:59.847Z,82.30
2019-03-18T00:40:46.707Z,82.01
2019-03-18T00:43:34.071Z,81.93
2019-03-18T00:46:20.730Z,81.60
2019-03-18T00:49:07.607Z,82.11
2019-03-18T00:51:54.899Z,82.15
2019-03-18T00:54:42.451Z,82.33
2019-03-18T00:57:29.111Z,82.33
2019-03-18T01:00:16.202Z,82.33
2019-03-18T01:03:03.188Z,82.36
2019-03-18T01:05:49.861Z,82.51
2019-03-18T01:08:36.859Z,82.78
2019-03-18T01:11:23.591Z,82.68
2019-03-18T01:14:10.234Z,82.68
2019-03-18T01:16:58.575Z,82.89
2019-03-18T01:19:45.191Z,82.84
2019-03-18T01:22:31.896Z,82.40
2019-03-18T01:25:19.327Z,82.71
2019-03-18T01:28:05.997Z,82.67
2019-03-18T01:30:52.601Z,82.52
2019-03-18T01:33:39.651Z,82.84
2019-03-18T01:36:26.379Z,82.53
2019-03-18T01:39:13.000Z,82.20
2019-03-18T01:42:03.633Z,81.92
2019-03-18T01:44:50.335Z,82.01
2019-03-18T01:47:37.255Z,81.76
2019-03-18T01:50:26.066Z,81.71
2019-03-18T01:53:12.723Z,82.33
2019-03-18T01:55:59.667Z,82.07
2019-03-18T01:58:46.486Z,82.27
2019-03-18T02:01:33.309Z,82.30
2019-03-18T02:04:20.606Z,82.75
2019-03-18T02:07:07.284Z,82.48
2019-03-18T02:09:53.448Z,82.64
2019-03-18T02:12:41.799Z,82.55
2019-03-18T02:15:28.640Z,83.11
2019-03-18T02:18:15.398Z,82.27
2019-03-18T02:21:02.204Z,82.57
2019-03-18T02:23:49.581Z,82.81
2019-03-18T02:26:36.093Z,82.29
2019-03-18T02:29:23.193Z,82.55
2019-03-18T02:32:10.913Z,82.55
2019-03-18T02:34:57.037Z,82.53
2019-03-18T02:37:43.426Z,82.43
2019-03-18T02:40:30.781Z,82.39
2019-03-18T02:43:17.734Z,82.63
2019-03-18T02:46:10.446Z,82.36
2019-03-18T02:48:53.430Z,82.69
2019-03-18T02:51:40.856Z,83.37
2019-03-18T02:54:27.910Z,83.87
2019-03-18T02:57:14.868Z,84.68
2019-03-18T03:00:01.722Z,85.00
2019-03-18T03:02:49.309Z,85.17
2019-03-18T03:05:35.962Z,85.66
2019-03-18T03:08:22.691Z,85.95
2019-03-18T03:11:11.285Z,86.00
2019-03-18T03:13:58.608Z,86.61
2019-03-18T03:16:45.101Z,87.26
2019-03-18T03:19:32.523Z,88.01
2019-03-18T03:22:18.918Z,88.14
2019-03-18T03:25:06.345Z,88.14
2019-03-18T03:27:54.868Z,88.04
2019-03-18T03:30:41.416Z,88.07
2019-03-18T03:33:28.274Z,88.09
2019-03-18T03:36:15.672Z,87.95
2019-03-18T03:39:02.252Z,88.01
2019-03-18T03:41:49.678Z,87.87
2019-03-18T03:44:36.508Z,87.76
2019-03-18T03:47:23.523Z,87.89
2019-03-18T03:50:11.022Z,87.98
2019-03-18T03:52:57.966Z,88.24
2019-03-18T03:55:45.074Z,88.43
2019-03-18T03:58:31.912Z,88.12
2019-03-18T04:01:18.703Z,87.93
2019-03-18T04:04:05.844Z,87.73
2019-03-18T04:06:52.329Z,87.97
2019-03-18T04:09:39.642Z,87.97
2019-03-18T04:12:26.242Z,88.04
2019-03-18T04:15:13.173Z,88.41
2019-03-18T04:18:00.403Z,88.15
2019-03-18T04:20:47.294Z,88.22
2019-03-18T04:23:33.888Z,88.42
2019-03-18T04:26:21.371Z,88.64
2019-03-18T04:29:08.163Z,88.48
2019-03-18T04:31:55.699Z,88.17
2019-03-18T04:34:43.998Z,88.07
2019-03-18T04:37:30.536Z,87.75
2019-03-18T04:40:17.677Z,88.04
2019-03-18T04:43:04.696Z,88.08
2019-03-18T04:45:51.317Z,88.06
2019-03-18T04:48:37.693Z,88.23
2019-03-18T04:51:24.801Z,87.84
2019-03-18T04:54:11.007Z,87.75
2019-03-18T04:56:58.097Z,87.81
2019-03-18T04:59:46.155Z,88.01
2019-03-18T05:02:32.468Z,88.23
2019-03-18T05:05:19.320Z,88.62
2019-03-18T05:08:06.277Z,88.84
2019-03-18T05:10:52.809Z,88.80
2019-03-18T05:13:38.943Z,89.06
2019-03-18T05:16:26.002Z,89.83
2019-03-18T05:19:12.624Z,89.48
2019-03-18T05:21:59.881Z,89.59
2019-03-18T05:24:46.352Z,89.76
2019-03-18T05:27:32.985Z,90.27
2019-03-18T05:30:20.169Z,90.22
2019-03-18T05:33:09.032Z,90.51
2019-03-18T05:35:55.667Z,90.10
2019-03-18T05:38:42.676Z,89.50
2019-03-18T05:41:30.025Z,89.51
2019-03-18T05:44:16.680Z,89.83
2019-03-18T05:47:03.424Z,89.44
2019-03-18T05:49:50.564Z,89.25
2019-03-18T05:52:36.945Z,89.63
2019-03-18T05:55:24.171Z,90.20
2019-03-18T05:58:10.901Z,90.32
2019-03-18T06:00:57.581Z,89.84
2019-03-18T06:03:44.577Z,89.73
2019-03-18T06:06:31.237Z,89.29
2019-03-18T06:09:17.652Z,89.23
2019-03-18T06:12:04.578Z,88.96
2019-03-18T06:14:53.976Z,88.79
2019-03-18T06:17:51.652Z,88.51
2019-03-18T06:20:31.097Z,88.53
2019-03-18T06:23:17.405Z,88.46
2019-03-18T06:26:05.351Z,88.62
2019-03-18T06:28:52.725Z,88.68
2019-03-18T06:31:39.841Z,88.96
2019-03-18T06:34:31.685Z,89.12
2019-03-18T06:37:24.205Z,88.37
2019-03-18T06:40:13.951Z,87.94
2019-03-18T06:43:17.229Z,88.28
2019-03-18T06:46:05.045Z,87.80
2019-03-18T06:48:51.581Z,87.84
2019-03-18T06:51:38.456Z,87.67
2019-03-18T06:54:25.127Z,87.60
2019-03-18T06:57:11.793Z,87.48
2019-03-18T06:59:58.610Z,86.35
2019-03-18T07:02:45.020Z,86.48
2019-03-18T07:05:34.373Z,86.49
2019-03-18T07:08:21.975Z,86.37
2019-03-18T07:11:10.766Z,85.94
2019-03-18T07:13:57.225Z,85.98
2019-03-18T07:16:44.310Z,86.16
2019-03-18T07:19:31.510Z,86.22
2019-03-18T07:22:18.254Z,86.00
2019-03-18T07:25:05.813Z,86.24
2019-03-18T07:27:52.643Z,85.52
2019-03-18T07:30:39.541Z,85.17
2019-03-18T07:33:26.782Z,83.48
2019-03-18T07:36:13.313Z,83.22
2019-03-18T07:39:00.217Z,83.37
2019-03-18T07:41:47.400Z,84.40
2019-03-18T07:44:33.637Z,84.92
2019-03-18T07:47:24.626Z,84.02
2019-03-18T07:50:11.079Z,83.74
2019-03-18T07:52:58.358Z,83.63
2019-03-18T07:55:44.920Z,82.72
2019-03-18T07:58:31.562Z,81.38
2019-03-18T08:01:19.994Z,76.67
2019-03-18T08:04:06.667Z,75.61
2019-03-18T08:06:56.114Z,71.84
2019-03-18T08:09:42.882Z,75.56
2019-03-18T08:12:31.407Z,76.12
2019-03-18T08:15:21.272Z,75.60
2019-03-18T08:18:08.942Z,76.83
2019-03-18T08:20:55.881Z,71.89
2019-03-18T08:23:43.119Z,72.84
2019-03-18T08:26:30.062Z,74.26
2019-03-18T08:29:16.661Z,78.20
2019-03-18T08:32:03.694Z,80.05
2019-03-18T08:34:50.594Z,80.25
2019-03-18T08:37:37.413Z,79.93
2019-03-18T08:40:24.242Z,78.29
2019-03-18T08:43:11.259Z,78.63
2019-03-18T08:45:57.634Z,79.16
2019-03-18T08:48:55.425Z,80.55
2019-03-18T08:51:35.819Z,79.06
2019-03-18T08:54:22.274Z,78.31
2019-03-18T08:57:09.213Z,77.91
2019-03-18T08:59:56.629Z,76.30
2019-03-18T09:02:43.433Z,76.00
2019-03-18T09:05:30.171Z,75.89
2019-03-18T09:08:19.603Z,74.99
2019-03-18T09:11:09.105Z,75.92
2019-03-18T09:13:58.605Z,74.59
2019-03-18T09:16:47.793Z,71.61
2019-03-18T09:19:34.114Z,68.65
2019-03-18T09:22:20.772Z,68.69
2019-03-18T09:25:09.012Z,65.74
2019-03-18T09:27:55.462Z,66.86
2019-03-18T09:30:42.606Z,69.05
2019-03-18T09:33:32.357Z,71.82
2019-03-18T09:36:19.178Z,71.34
2019-03-18T09:39:07.223Z,71.94
2019-03-18T09:41:55.395Z,73.00
2019-03-18T09:44:48.025Z,73.53
2019-03-18T09:47:34.886Z,73.16
2019-03-18T09:50:22.634Z,69.86
2019-03-18T09:53:09.714Z,69.55
2019-03-18T09:55:56.498Z,71.17
2019-03-18T09:58:43.022Z,68.16
2019-03-18T10:01:31.282Z,67.75
2019-03-18T10:04:20.351Z,68.44
2019-03-18T10:07:08.922Z,67.79
2019-03-18T10:09:55.831Z,65.82
2019-03-18T10:12:42.580Z,63.21
2019-03-18T10:15:29.434Z,66.85
2019-03-18T10:18:16.259Z,66.40
2019-03-18T10:21:03.167Z,66.66
2019-03-18T10:23:50.435Z,65.76
2019-03-18T10:26:36.899Z,62.14
2019-03-18T10:29:23.798Z,59.47
2019-03-18T10:32:13.186Z,61.17
2019-03-18T10:35:02.986Z,57.02
2019-03-18T10:37:50.440Z,57.33
2019-03-18T10:40:37.046Z,56.30
2019-03-18T10:43:24.231Z,57.60
2019-03-18T10:46:10.951Z,57.07
2019-03-18T10:49:00.423Z,55.87
2019-03-18T10:51:49.764Z,54.82
2019-03-18T10:54:42.823Z,52.93
2019-03-18T10:57:31.087Z,55.17
2019-03-18T11:00:17.885Z,51.85
2019-03-18T11:03:04.720Z,49.72
2019-03-18T11:05:51.766Z,49.56
2019-03-18T11:08:38.566Z,49.72
2019-03-18T11:11:24.981Z,53.06
2019-03-18T11:14:14.417Z,52.01
2019-03-18T11:17:01.110Z,51.63
2019-03-18T11:19:57.831Z,49.80
2019-03-18T11:22:35.484Z,48.42
2019-03-18T11:25:22.679Z,51.27
2019-03-18T11:28:09.294Z,55.15
2019-03-18T11:30:56.630Z,51.57
2019-03-18T11:33:43.749Z,52.25
2019-03-18T11:36:31.599Z,53.86
2019-03-18T11:39:18.908Z,54.81
2019-03-18T11:42:12.109Z,55.37
2019-03-18T11:44:59.002Z,55.33
2019-03-18T11:47:46.355Z,54.36
2019-03-18T11:50:35.995Z,55.28
2019-03-18T11:53:22.666Z,54.37
2019-03-18T11:56:11.786Z,55.58
2019-03-18T11:58:58.840Z,57.75
2019-03-18T12:01:45.779Z,57.76
2019-03-18T12:04:32.941Z,56.29
2019-03-18T12:07:20.418Z,58.24
2019-03-18T12:10:11.769Z,61.31
2019-03-18T12:13:03.992Z,66.98
2019-03-18T12:15:53.120Z,69.45
2019-03-18T12:18:40.189Z,69.90
2019-03-18T12:21:28.941Z,69.62
2019-03-18T12:24:15.460Z,69.95
2019-03-18T12:27:06.614Z,69.63
2019-03-18T12:29:56.009Z,70.68
2019-03-18T12:32:45.377Z,70.41
2019-03-18T12:35:33.968Z,68.93
2019-03-18T12:38:20.344Z,65.53
2019-03-18T12:41:06.897Z,66.09
2019-03-18T12:43:56.903Z,65.47
2019-03-18T12:46:49.005Z,64.61
2019-03-18T12:49:36.153Z,64.73
2019-03-18T12:52:23.138Z,65.35
2019-03-18T12:55:14.038Z,64.56
2019-03-18T12:58:01.129Z,64.44
2019-03-18T13:00:47.851Z,59.72
2019-03-18T13:03:35.981Z,56.43
2019-03-18T13:06:25.610Z,57.77
2019-03-18T13:09:13.366Z,57.61
2019-03-18T13:12:00.028Z,54.73
2019-03-18T13:14:46.499Z,54.74
2019-03-18T13:17:33.331Z,55.64
2019-03-18T13:20:23.007Z,55.05
2019-03-18T13:23:11.792Z,54.51
2019-03-18T13:25:58.164Z,55.13
2019-03-18T13:28:48.523Z,57.28
2019-03-18T13:31:37.414Z,54.92
2019-03-18T13:34:25.846Z,57.13
2019-03-18T13:37:12.642Z,58.25
2019-03-18T13:39:59.194Z,58.50
2019-03-18T13:42:46.160Z,56.11
2019-03-18T13:45:33.266Z,54.02
2019-03-18T13:48:19.795Z,55.62
2019-03-18T13:51:21.119Z,54.40
2019-03-18T13:54:06.152Z,50.89
2019-03-18T13:56:52.452Z,51.26
2019-03-18T13:59:41.969Z,56.65
2019-03-18T14:02:29.778Z,61.65
2019-03-18T21:19:45.008Z,76.13
2019-03-18T21:22:31.718Z,75.86
2019-03-18T21:25:17.523Z,76.44
2019-03-18T21:28:03.717Z,76.83
2019-03-18T21:30:49.634Z,76.66
2019-03-18T21:33:36.120Z,76.93
2019-03-18T21:36:36.946Z,76.62
2019-03-18T21:39:10.805Z,77.23
2019-03-18T21:41:56.839Z,77.27
2019-03-18T21:44:43.981Z,77.45
2019-03-18T21:47:31.001Z,77.45
2019-03-18T21:50:17.177Z,78.63
2019-03-18T21:53:03.634Z,80.52
2019-03-18T21:55:49.478Z,80.10
2019-03-18T21:58:35.455Z,79.63
2019-03-18T22:01:22.381Z,81.24
2019-03-18T22:04:08.681Z,81.49
2019-03-18T22:06:55.082Z,79.90
2019-03-18T22:09:41.790Z,79.68
2019-03-18T22:12:28.047Z,79.68
2019-03-18T22:15:14.108Z,79.08
2019-03-18T22:18:00.583Z,80.18
2019-03-18T22:20:46.982Z,80.18
2019-03-18T22:23:32.875Z,81.28
2019-03-18T22:26:19.325Z,81.28
2019-03-18T22:29:05.373Z,81.08
2019-03-18T22:31:52.094Z,80.80
2019-03-18T22:34:38.550Z,80.80
2019-03-18T22:37:25.721Z,80.34
2019-03-18T22:40:13.879Z,81.31
2019-03-18T22:43:00.074Z,80.83
2019-03-18T22:45:46.500Z,80.71
2019-03-18T22:48:33.086Z,80.16
2019-03-18T22:51:19.792Z,79.99
2019-03-18T22:54:06.191Z,79.71
2019-03-18T22:56:52.414Z,79.71
2019-03-18T22:59:38.784Z,81.21
2019-03-18T23:02:25.011Z,81.21
2019-03-18T23:05:15.698Z,81.31
2019-03-18T23:08:02.306Z,81.13
2019-03-18T23:10:48.148Z,81.29
2019-03-18T23:13:34.598Z,81.29
2019-03-18T23:16:20.705Z,81.04
2019-03-18T23:19:06.998Z,81.26
2019-03-18T23:21:53.412Z,81.26
2019-03-18T23:24:40.522Z,81.50
2019-03-18T23:27:27.955Z,81.77
2019-03-18T23:30:14.497Z,84.18
2019-03-18T23:33:01.062Z,84.31
2019-03-18T23:35:48.266Z,83.64
2019-03-18T23:38:34.276Z,82.86
2019-03-18T23:41:20.886Z,81.94
2019-03-18T23:44:07.147Z,81.94
2019-03-18T23:46:53.589Z,81.77
2019-03-18T23:49:39.634Z,81.77
2019-03-18T23:52:26.237Z,83.33
2019-03-18T23:55:18.790Z,84.05
2019-03-18T23:58:00.468Z,83.87
